Time;durP1;ratioP1;P1;durP2;ratioP2;P2;SDS_P1;SDS_P2;PMS_P1;PMS_P2;Temp;Humidity;BMP_temperature;BMP_pressure;BME280_temperature;BME280_humidity;BME280_pressure;Samples;Min_cycle;Max_cycle;Signal;HPM_P1;HPM_P2
2022/07/27 00:00:21;;;;;;;6.40;6.10;;;;;;;-143.83;100.00;62900.06;5113536;28;20460;-62
2022/07/27 00:02:46;;;;;;;6.60;6.30;;;;;;;-143.83;100.00;62900.06;5112813;28;20098;-61
2022/07/27 00:05:11;;;;;;;6.70;6.40;;;;;;;-143.83;100.00;62900.06;5114203;27;20106;-61
2022/07/27 00:07:37;;;;;;;6.63;6.32;;;;;;;-143.83;100.00;62900.06;5113638;28;20027;-62
2022/07/27 00:10:04;;;;;;;6.65;6.35;;;;;;;-143.83;100.00;62900.06;5117309;27;20023;-62
2022/07/27 00:12:29;;;;;;;6.70;6.40;;;;;;;-143.83;100.00;62900.06;5115989;27;20106;-61
2022/07/27 00:14:57;;;;;;;6.63;6.32;;;;;;;-143.83;100.00;62900.06;5112139;28;20127;-62
2022/07/27 00:17:24;;;;;;;6.60;6.30;;;;;;;-143.83;100.00;62900.06;5113027;28;20110;-62
2022/07/27 00:19:50;;;;;;;6.60;6.30;;;;;;;-143.83;100.00;62900.06;5112261;28;20042;-62
2022/07/27 00:22:16;;;;;;;6.80;6.50;;;;;;;-143.83;100.00;62900.06;5112046;27;20019;-62
2022/07/27 00:24:41;;;;;;;7.03;6.72;;;;;;;-143.83;100.00;62900.06;5113121;28;20011;-61
2022/07/27 00:27:07;;;;;;;6.72;6.43;;;;;;;-143.83;100.00;62900.06;5112022;28;20072;-62
2022/07/27 00:29:33;;;;;;;6.80;6.50;;;;;;;-143.83;100.00;62900.06;5113030;28;20031;-63
2022/07/27 00:31:59;;;;;;;6.78;6.47;;;;;;;-143.83;100.00;62900.06;5113225;28;20016;-61
2022/07/27 00:34:24;;;;;;;6.63;6.32;;;;;;;-143.83;100.00;62900.06;5112739;28;20042;-61
2022/07/27 00:36:50;;;;;;;6.50;6.20;;;;;;;-143.83;100.00;62900.06;5111192;28;20365;-62
2022/07/27 00:39:16;;;;;;;6.60;6.30;;;;;;;-143.83;100.00;62900.06;5107628;27;20020;-62
2022/07/27 00:41:41;;;;;;;6.50;6.20;;;;;;;-143.83;100.00;62900.06;5112439;28;20054;-61
2022/07/27 00:44:07;;;;;;;6.60;6.30;;;;;;;-143.83;100.00;62900.06;5113114;28;20020;-62
2022/07/27 00:46:33;;;;;;;6.75;6.45;;;;;;;-143.83;100.00;62900.06;5112897;28;20437;-61
2022/07/27 00:48:58;;;;;;;6.57;6.28;;;;;;;-143.83;100.00;62900.06;5113184;28;20485;-62
2022/07/27 00:51:24;;;;;;;6.50;6.20;;;;;;;-143.83;100.00;62900.06;5112385;28;20027;-62
2022/07/27 00:53:53;;;;;;;6.50;6.20;;;;;;;-143.83;100.00;62900.06;5110674;28;20027;-60
2022/07/27 00:56:20;;;;;;;6.60;6.30;;;;;;;-143.83;100.00;62900.06;5113313;27;20051;-60
2022/07/27 00:58:47;;;;;;;6.60;6.30;;;;;;;-143.83;100.00;62900.06;5112669;28;20051;-61
2022/07/27 01:01:14;;;;;;;6.50;6.20;;;;;;;-143.83;100.00;62900.06;5112645;28;20028;-62
2022/07/27 01:03:39;;;;;;;6.53;6.22;;;;;;;-143.83;100.00;62900.06;5112587;28;20015;-61
2022/07/27 01:06:06;;;;;;;6.60;6.30;;;;;;;-143.83;100.00;62900.06;5114928;27;20019;-61
2022/07/27 01:08:31;;;;;;;6.60;6.30;;;;;;;-143.83;100.00;62900.06;5116856;27;20034;-61
2022/07/27 01:10:58;;;;;;;6.43;6.13;;;;;;;-143.83;100.00;62900.06;5111443;28;20542;-62
2022/07/27 01:13:26;;;;;;;6.55;6.25;;;;;;;-143.83;100.00;62900.06;5112796;28;20073;-62
2022/07/27 01:15:53;;;;;;;6.45;6.15;;;;;;;-143.83;100.00;62900.06;5112240;28;20240;-61
2022/07/27 01:18:33;;;;;;;6.60;6.30;;;;;;;-143.83;100.00;62900.06;5106701;28;20020;-62
2022/07/27 01:21:02;;;;;;;6.88;6.57;;;;;;;-143.83;100.00;62900.06;5110585;28;20115;-62
2022/07/27 01:23:31;;;;;;;6.20;6.00;;;;;;;-143.83;100.00;62900.06;5109352;28;20024;-62
2022/07/27 01:25:57;;;;;;;6.60;6.30;;;;;;;-143.83;100.00;62900.06;5112141;28;20088;-61
2022/07/27 01:28:23;;;;;;;6.50;6.20;;;;;;;-143.83;100.00;62900.06;5112425;28;20133;-61
2022/07/27 01:30:49;;;;;;;6.70;6.40;;;;;;;-143.83;100.00;62900.06;5113335;27;20603;-62
2022/07/27 01:33:15;;;;;;;6.60;6.30;;;;;;;-143.83;100.00;62900.06;5111978;28;20606;-60
2022/07/27 01:35:40;;;;;;;6.60;6.30;;;;;;;-143.83;100.00;62900.06;5112063;28;20055;-61
2022/07/27 01:38:08;;;;;;;6.65;6.35;;;;;;;-143.83;100.00;62900.06;5112287;28;20047;-61
2022/07/27 01:40:35;;;;;;;6.68;6.38;;;;;;;-143.83;100.00;62900.06;5111901;28;20024;-61
2022/07/27 01:43:02;;;;;;;6.50;6.20;;;;;;;-143.83;100.00;62900.06;5111951;28;20093;-61
2022/07/27 01:45:28;;;;;;;6.45;6.15;;;;;;;-143.83;100.00;62900.06;5110511;28;20089;-61
2022/07/27 01:47:54;;;;;;;6.47;6.18;;;;;;;-143.83;100.00;62900.06;5112346;28;20479;-60
2022/07/27 01:50:19;;;;;;;6.32;6.05;;;;;;;-143.83;100.00;62900.06;5112275;28;20024;-61
2022/07/27 01:52:45;;;;;;;6.60;6.30;;;;;;;-143.83;100.00;62900.06;5098283;28;20027;-61
2022/07/27 01:55:11;;;;;;;6.93;6.63;;;;;;;-143.83;100.00;62900.06;5109012;28;20023;-62
2022/07/27 01:57:38;;;;;;;6.47;6.18;;;;;;;-143.83;100.00;62900.06;5111773;28;20491;-61
2022/07/27 02:00:12;;;;;;;6.60;6.30;;;;;;;-143.83;100.00;62900.06;5111988;28;20031;-62
2022/07/27 02:02:38;;;;;;;6.90;6.60;;;;;;;-143.83;100.00;62900.06;5110970;27;20024;-61
2022/07/27 02:05:04;;;;;;;6.70;6.40;;;;;;;-143.83;100.00;62900.06;5116003;28;20019;-62
2022/07/27 02:07:30;;;;;;;6.60;6.30;;;;;;;-143.83;100.00;62900.06;5115847;28;20738;-62
2022/07/27 02:09:56;;;;;;;6.63;6.32;;;;;;;-143.83;100.00;62900.06;5115930;28;20035;-60
2022/07/27 02:12:36;;;;;;;6.60;6.30;;;;;;;-143.83;100.00;62900.06;5115122;28;20023;-62
2022/07/27 02:15:11;;;;;;;6.55;6.25;;;;;;;-143.83;100.00;62900.06;5114877;28;20031;-60
2022/07/27 02:17:37;;;;;;;6.68;6.38;;;;;;;-143.83;100.00;62900.06;5115512;28;20035;-62
2022/07/27 02:20:04;;;;;;;6.50;6.20;;;;;;;-143.83;100.00;62900.06;5115091;27;20036;-61
2022/07/27 02:22:30;;;;;;;6.47;6.18;;;;;;;-143.83;100.00;62900.06;5115584;28;20043;-61
2022/07/27 02:24:56;;;;;;;7.30;7.00;;;;;;;-143.83;100.00;62900.06;5115034;28;20058;-62
2022/07/27 02:27:21;;;;;;;6.57;6.28;;;;;;;-143.83;100.00;62900.06;5114225;28;20020;-62
2022/07/27 02:29:47;;;;;;;6.43;6.13;;;;;;;-143.83;100.00;62900.06;5115717;28;20023;-62
2022/07/27 02:32:12;;;;;;;6.60;6.30;;;;;;;-143.83;100.00;62900.06;5115390;28;20504;-62
2022/07/27 02:34:38;;;;;;;6.35;6.07;;;;;;;-143.83;100.00;62900.06;5115254;28;20028;-62
2022/07/27 02:37:03;;;;;;;6.60;6.30;;;;;;;-143.83;100.00;62900.06;5114689;27;20028;-62
2022/07/27 02:39:29;;;;;;;6.63;6.32;;;;;;;-143.83;100.00;62900.06;5114491;28;20094;-61
2022/07/27 02:41:54;;;;;;;6.57;6.28;;;;;;;-143.83;100.00;62900.06;5114772;28;20044;-62
2022/07/27 02:44:20;;;;;;;6.55;6.25;;;;;;;-143.83;100.00;62900.06;5115327;28;20020;-61
2022/07/27 02:46:47;;;;;;;6.70;6.40;;;;;;;-143.83;100.00;62900.06;5117983;27;20148;-62
2022/07/27 02:49:12;;;;;;;6.50;6.20;;;;;;;-143.83;100.00;62900.06;5115057;28;20031;-61
2022/07/27 02:51:37;;;;;;;6.57;6.28;;;;;;;-143.83;100.00;62900.06;5114708;28;20475;-61
2022/07/27 02:54:03;;;;;;;6.60;6.30;;;;;;;-143.83;100.00;62900.06;5114309;27;20034;-61
2022/07/27 02:56:28;;;;;;;6.60;6.30;;;;;;;-143.83;100.00;62900.06;5113874;28;20550;-62
2022/07/27 02:58:54;;;;;;;6.70;6.40;;;;;;;-143.83;100.00;62900.06;5119971;27;20037;-61
2022/07/27 03:01:20;;;;;;;6.63;6.32;;;;;;;-143.83;100.00;62900.06;5116090;27;20032;-61
2022/07/27 03:03:46;;;;;;;6.60;6.30;;;;;;;-143.83;100.00;62900.06;5114746;28;20055;-61
2022/07/27 03:06:12;;;;;;;6.72;6.43;;;;;;;-143.83;100.00;62900.06;5114615;28;20057;-61
2022/07/27 03:08:38;;;;;;;6.50;6.20;;;;;;;-143.83;100.00;62900.06;5114555;28;20077;-60
2022/07/27 03:11:04;;;;;;;6.60;6.30;;;;;;;-143.83;100.00;62900.06;5113110;27;20020;-61
2022/07/27 03:13:30;;;;;;;6.53;6.22;;;;;;;-143.83;100.00;62900.06;5112246;28;20035;-62
2022/07/27 03:15:56;;;;;;;6.68;6.38;;;;;;;-143.83;100.00;62900.06;5114970;28;20080;-62
2022/07/27 03:18:22;;;;;;;6.40;6.10;;;;;;;-143.83;100.00;62900.06;5114205;28;20470;-62
2022/07/27 03:20:47;;;;;;;6.88;6.57;;;;;;;-143.83;100.00;62900.06;5114555;28;20031;-62
2022/07/27 03:23:13;;;;;;;6.55;6.25;;;;;;;-143.83;100.00;62900.06;5114515;28;20034;-62
2022/07/27 03:25:38;;;;;;;6.47;6.18;;;;;;;-143.83;100.00;62900.06;5113376;28;20024;-62
2022/07/27 03:28:04;;;;;;;6.50;6.20;;;;;;;-143.83;100.00;62900.06;5119249;27;20027;-62
2022/07/27 03:30:31;;;;;;;6.57;6.28;;;;;;;-143.83;100.00;62900.06;5114167;28;20665;-62
2022/07/27 03:32:56;;;;;;;6.70;6.40;;;;;;;-143.83;100.00;62900.06;5114201;27;20024;-61
2022/07/27 03:35:22;;;;;;;6.80;6.50;;;;;;;-143.83;100.00;62900.06;5114162;28;20031;-62
2022/07/27 03:37:47;;;;;;;6.60;6.30;;;;;;;-143.83;100.00;62900.06;5114125;28;20481;-62
2022/07/27 03:40:13;;;;;;;6.88;6.57;;;;;;;-143.83;100.00;62900.06;5112436;28;20039;-61
2022/07/27 03:42:38;;;;;;;6.75;6.45;;;;;;;-143.83;100.00;62900.06;5114067;28;20044;-62
2022/07/27 03:45:04;;;;;;;7.18;6.88;;;;;;;-143.83;100.00;62900.06;5112178;27;20532;-62
2022/07/27 03:47:30;;;;;;;6.72;6.43;;;;;;;-143.83;100.00;62900.06;5113054;28;20022;-60
2022/07/27 03:49:55;;;;;;;6.80;6.50;;;;;;;-143.83;100.00;62900.06;5113978;28;20023;-61
2022/07/27 03:52:21;;;;;;;6.90;6.60;;;;;;;-143.83;100.00;62900.06;5112153;28;20551;-61
2022/07/27 03:54:47;;;;;;;6.65;6.35;;;;;;;-143.83;100.00;62900.06;5114559;27;20027;-61
2022/07/27 03:57:13;;;;;;;6.80;6.50;;;;;;;-143.83;100.00;62900.06;5122974;27;20042;-61
2022/07/27 03:59:38;;;;;;;6.90;6.60;;;;;;;-143.83;100.00;62900.06;5113625;27;20024;-61
2022/07/27 04:02:04;;;;;;;6.70;6.40;;;;;;;-143.83;100.00;62900.06;5111181;27;20023;-61
2022/07/27 04:04:30;;;;;;;6.93;6.63;;;;;;;-143.83;100.00;62900.06;5113459;28;20466;-61
2022/07/27 04:06:55;;;;;;;7.10;6.80;;;;;;;-143.83;100.00;62900.06;5106671;27;20418;-62
2022/07/27 04:09:21;;;;;;;6.95;6.65;;;;;;;-143.83;100.00;62900.06;5113063;28;20378;-61
2022/07/27 04:11:47;;;;;;;6.97;6.68;;;;;;;-143.83;100.00;62900.06;5111994;28;20020;-61
2022/07/27 04:14:12;;;;;;;6.93;6.63;;;;;;;-143.83;100.00;62900.06;5112537;28;20044;-61
2022/07/27 04:16:38;;;;;;;7.00;6.70;;;;;;;-143.83;100.00;62900.06;5112850;27;20080;-61
2022/07/27 04:19:05;;;;;;;7.10;6.80;;;;;;;-143.83;100.00;62900.06;5113453;27;20023;-61
2022/07/27 04:21:30;;;;;;;7.00;6.70;;;;;;;-143.83;100.00;62900.06;5113310;28;20088;-61
2022/07/27 04:23:56;;;;;;;7.18;6.88;;;;;;;-143.83;100.00;62900.06;5111778;27;20043;-62
2022/07/27 04:26:22;;;;;;;7.03;6.72;;;;;;;-143.83;100.00;62900.06;5112599;28;20097;-62
2022/07/27 04:28:47;;;;;;;7.00;6.70;;;;;;;-143.83;100.00;62900.06;5112950;28;20054;-62
2022/07/27 04:31:13;;;;;;;7.10;6.80;;;;;;;-143.83;100.00;62900.06;5112779;28;20059;-61
2022/07/27 04:33:38;;;;;;;6.85;6.55;;;;;;;-143.83;100.00;62900.06;5112491;28;20482;-61
2022/07/27 04:36:04;;;;;;;6.80;6.50;;;;;;;-143.83;100.00;62900.06;5112075;27;20020;-61
2022/07/27 04:38:30;;;;;;;6.97;6.68;;;;;;;-143.83;100.00;62900.06;5112546;28;20040;-61
2022/07/27 04:40:55;;;;;;;6.90;6.60;;;;;;;-143.83;100.00;62900.06;5111150;28;20026;-61
2022/07/27 04:43:20;;;;;;;7.10;6.80;;;;;;;-143.83;100.00;62900.06;5111904;28;20447;-61
2022/07/27 04:45:46;;;;;;;7.10;6.80;;;;;;;-143.83;100.00;62900.06;5106591;28;20027;-61
2022/07/27 04:48:11;;;;;;;7.03;6.72;;;;;;;-143.83;100.00;62900.06;5112853;28;20454;-62
2022/07/27 04:50:39;;;;;;;7.00;6.70;;;;;;;-143.83;100.00;62900.06;5111277;28;20769;-62
2022/07/27 04:53:05;;;;;;;7.28;6.97;;;;;;;-143.83;100.00;62900.06;5111694;27;20059;-62
2022/07/27 04:55:30;;;;;;;6.95;6.65;;;;;;;-143.83;100.00;62900.06;5111344;28;20081;-61
2022/07/27 04:57:56;;;;;;;7.22;6.93;;;;;;;-143.83;100.00;62900.06;5111400;28;20031;-61
2022/07/27 05:00:21;;;;;;;7.30;7.00;;;;;;;-143.83;100.00;62900.06;5109260;28;20564;-62
2022/07/27 05:02:47;;;;;;;7.00;6.70;;;;;;;-143.83;100.00;62900.06;5098723;28;20023;-63
2022/07/27 05:05:12;;;;;;;7.15;6.85;;;;;;;-143.83;100.00;62900.06;5108425;28;20031;-62
2022/07/27 05:07:38;;;;;;;7.32;7.03;;;;;;;-143.83;100.00;62900.06;5112650;28;20035;-61
2022/07/27 05:10:04;;;;;;;7.10;6.80;;;;;;;-143.83;100.00;62900.06;5111755;28;20024;-62
2022/07/27 05:12:29;;;;;;;7.30;7.00;;;;;;;-143.83;100.00;62900.06;5112324;28;20023;-62
2022/07/27 05:14:55;;;;;;;7.10;6.80;;;;;;;-143.83;100.00;62900.06;5112451;28;20020;-62
2022/07/27 05:17:20;;;;;;;7.30;7.00;;;;;;;-143.83;100.00;62900.06;5111963;28;20502;-62
2022/07/27 05:19:46;;;;;;;7.38;7.07;;;;;;;-143.83;100.00;62900.06;5111955;28;20028;-62
2022/07/27 05:22:11;;;;;;;7.20;6.90;;;;;;;-143.83;100.00;62900.06;5112512;28;20019;-62
2022/07/27 05:24:37;;;;;;;7.15;6.85;;;;;;;-143.83;100.00;62900.06;5112069;28;20439;-61
2022/07/27 05:27:03;;;;;;;7.20;6.90;;;;;;;-143.83;100.00;62900.06;5115951;27;20031;-62
2022/07/27 05:29:28;;;;;;;7.15;6.85;;;;;;;-143.83;100.00;62900.06;5112948;28;20023;-62
2022/07/27 05:31:54;;;;;;;7.30;7.00;;;;;;;-143.83;100.00;62900.06;5113827;28;20084;-62
2022/07/27 05:34:19;;;;;;;7.03;6.72;;;;;;;-143.83;100.00;62900.06;5112949;28;20024;-62
2022/07/27 05:36:45;;;;;;;7.10;6.80;;;;;;;-143.83;100.00;62900.06;5112837;28;20024;-62
2022/07/27 05:39:10;;;;;;;7.25;6.95;;;;;;;-143.83;100.00;62900.06;5116360;28;20035;-62
2022/07/27 05:41:36;;;;;;;7.18;6.88;;;;;;;-143.83;100.00;62900.06;5115946;28;20042;-62
2022/07/27 05:44:01;;;;;;;7.20;6.90;;;;;;;-143.83;100.00;62900.06;5113433;27;20020;-61
2022/07/27 05:46:27;;;;;;;6.95;6.65;;;;;;;-143.83;100.00;62900.06;5116672;28;20037;-61
2022/07/27 05:48:52;;;;;;;7.10;6.80;;;;;;;-143.83;100.00;62900.06;5115796;28;20097;-62
2022/07/27 05:51:18;;;;;;;6.80;6.50;;;;;;;-143.83;100.00;62900.06;5115588;28;20034;-62
2022/07/27 05:53:43;;;;;;;6.90;6.60;;;;;;;-143.83;100.00;62900.06;5115817;28;20031;-62
2022/07/27 05:56:09;;;;;;;6.95;6.65;;;;;;;-143.83;100.00;62900.06;5115833;28;20080;-62
2022/07/27 05:58:35;;;;;;;7.18;6.88;;;;;;;-143.83;100.00;62900.06;5114665;28;20027;-62
2022/07/27 06:01:00;;;;;;;7.00;6.70;;;;;;;-143.83;100.00;62900.06;5111744;27;20108;-63
2022/07/27 06:03:26;;;;;;;7.30;7.00;;;;;;;-143.83;100.00;62900.06;5105545;28;20016;-62
2022/07/27 06:05:51;;;;;;;7.20;6.90;;;;;;;-143.83;100.00;62900.06;5122920;27;20020;-61
2022/07/27 06:08:17;;;;;;;7.30;7.00;;;;;;;-143.83;100.00;62900.06;5097545;28;20072;-63
2022/07/27 06:10:42;;;;;;;7.20;6.90;;;;;;;-143.83;100.00;62900.06;5110723;28;20030;-64
2022/07/27 06:13:10;;;;;;;7.25;6.95;;;;;;;-143.83;100.00;62900.06;5106053;28;20394;-63
2022/07/27 06:15:36;;;;;;;7.50;7.20;;;;;;;-143.83;100.00;62900.06;5108663;28;20040;-64
2022/07/27 06:18:02;;;;;;;7.18;6.88;;;;;;;-143.83;100.00;62900.06;5116320;27;20395;-64
2022/07/27 06:20:29;;;;;;;7.30;7.00;;;;;;;-143.83;100.00;62900.06;5127053;27;20100;-64
2022/07/27 06:22:59;;;;;;;7.43;7.13;;;;;;;-143.83;100.00;62900.06;5115077;28;20030;-63
2022/07/27 06:25:25;;;;;;;7.50;7.20;;;;;;;-143.83;100.00;62900.06;5114052;28;20019;-64
2022/07/27 06:27:52;;;;;;;7.30;7.00;;;;;;;-143.83;100.00;62900.06;5115429;28;20069;-64
2022/07/27 06:30:19;;;;;;;7.35;7.05;;;;;;;-143.83;100.00;62900.06;5115173;28;20027;-63
2022/07/27 06:32:45;;;;;;;7.38;7.07;;;;;;;-143.83;100.00;62900.06;5114985;28;20020;-64
2022/07/27 06:35:12;;;;;;;7.45;7.15;;;;;;;-143.83;100.00;62900.06;5100843;28;20028;-64
2022/07/27 06:37:42;;;;;;;7.68;7.38;;;;;;;-143.83;100.00;62900.06;5114956;28;20537;-63
2022/07/27 06:40:12;;;;;;;7.43;7.13;;;;;;;-143.83;100.00;62900.06;5114997;28;20474;-63
2022/07/27 06:42:39;;;;;;;7.30;7.00;;;;;;;-143.83;100.00;62900.06;5115091;28;20070;-63
2022/07/27 06:45:06;;;;;;;7.30;7.00;;;;;;;-143.83;100.00;62900.06;5126022;27;20016;-63
2022/07/27 06:47:32;;;;;;;6.90;6.60;;;;;;;-143.83;100.00;62900.06;5114708;28;20085;-64
2022/07/27 06:49:58;;;;;;;6.93;6.63;;;;;;;-143.83;100.00;62900.06;5114806;28;20027;-63
2022/07/27 06:52:23;;;;;;;6.93;6.63;;;;;;;-143.83;100.00;62900.06;5113946;28;20047;-64
2022/07/27 06:54:49;;;;;;;6.97;6.68;;;;;;;-143.83;100.00;62900.06;5114629;28;20080;-63
2022/07/27 06:57:15;;;;;;;7.07;6.78;;;;;;;-143.83;100.00;62900.06;5113468;28;20023;-64
2022/07/27 06:59:40;;;;;;;6.93;6.63;;;;;;;-143.83;100.00;62900.06;5114759;28;20012;-63
2022/07/27 07:02:06;;;;;;;6.95;6.65;;;;;;;-143.83;100.00;62900.06;5114464;28;20035;-63
2022/07/27 07:04:32;;;;;;;7.28;6.97;;;;;;;-143.83;100.00;62900.06;5114469;28;20016;-63
2022/07/27 07:06:59;;;;;;;7.13;6.82;;;;;;;-143.83;100.00;62900.06;5114602;28;20201;-63
2022/07/27 07:09:26;;;;;;;7.20;6.90;;;;;;;-143.83;100.00;62900.06;5113277;27;20088;-63
2022/07/27 07:11:52;;;;;;;7.28;6.97;;;;;;;-143.83;100.00;62900.06;5114638;28;20028;-63
2022/07/27 07:14:17;;;;;;;7.05;6.75;;;;;;;-143.83;100.00;62900.06;5114264;28;20035;-63
2022/07/27 07:16:43;;;;;;;7.15;6.85;;;;;;;-143.83;100.00;62900.06;5114802;28;20028;-64
2022/07/27 07:19:09;;;;;;;7.18;6.88;;;;;;;-143.83;100.00;62900.06;5114255;28;20027;-64
2022/07/27 07:21:34;;;;;;;7.10;6.80;;;;;;;-143.83;100.00;62900.06;5114191;28;20080;-64
2022/07/27 07:24:00;;;;;;;7.10;6.80;;;;;;;-143.83;100.00;62900.06;5114132;28;20027;-63
2022/07/27 07:26:25;;;;;;;7.00;6.70;;;;;;;-143.83;100.00;62900.06;5113272;28;20023;-64
2022/07/27 07:28:51;;;;;;;7.25;6.95;;;;;;;-143.83;100.00;62900.06;5114219;28;20065;-64
2022/07/27 07:31:19;;;;;;;7.07;6.78;;;;;;;-143.83;100.00;62900.06;5113715;28;20019;-63
2022/07/27 07:33:45;;;;;;;7.20;6.90;;;;;;;-143.83;100.00;62900.06;5112423;28;20055;-64
2022/07/27 07:36:11;;;;;;;7.20;6.90;;;;;;;-143.83;100.00;62900.06;5114209;28;20012;-63
2022/07/27 07:38:36;;;;;;;7.30;7.00;;;;;;;-143.83;100.00;62900.06;5114303;28;20035;-63
2022/07/27 07:41:02;;;;;;;7.20;6.90;;;;;;;-143.83;100.00;62900.06;5122081;27;20471;-63
2022/07/27 07:43:27;;;;;;;7.10;6.80;;;;;;;-143.83;100.00;62900.06;5113228;28;20063;-64
2022/07/27 07:45:54;;;;;;;7.18;6.88;;;;;;;-143.83;100.00;62900.06;5113782;28;20051;-63
2022/07/27 07:48:20;;;;;;;6.90;6.60;;;;;;;-143.83;100.00;62900.06;5108263;27;20032;-64
2022/07/27 07:50:46;;;;;;;6.85;6.55;;;;;;;-143.83;100.00;62900.06;5101133;28;20016;-64
2022/07/27 07:53:13;;;;;;;6.93;6.63;;;;;;;-143.83;100.00;62900.06;5110109;28;20031;-63
2022/07/27 07:55:39;;;;;;;6.82;6.53;;;;;;;-143.83;100.00;62900.06;5119747;27;20482;-66
2022/07/27 07:58:04;;;;;;;6.90;6.60;;;;;;;-143.83;100.00;62900.06;5112676;28;20024;-64
2022/07/27 08:00:30;;;;;;;6.90;6.60;;;;;;;-143.83;100.00;62900.06;5111824;28;20020;-64
2022/07/27 08:02:57;;;;;;;6.72;6.43;;;;;;;-143.83;100.00;62900.06;5113457;28;20099;-63
2022/07/27 08:05:23;;;;;;;6.95;6.65;;;;;;;-143.83;100.00;62900.06;5113395;28;20027;-63
2022/07/27 08:07:49;;;;;;;7.15;6.85;;;;;;;-143.83;100.00;62900.06;5113343;28;20063;-63
2022/07/27 08:10:17;;;;;;;6.70;6.40;;;;;;;-143.83;100.00;62900.06;5113402;28;20020;-64
2022/07/27 08:12:45;;;;;;;6.78;6.47;;;;;;;-143.83;100.00;62900.06;5113674;28;20076;-64
2022/07/27 08:15:13;;;;;;;6.70;6.40;;;;;;;-143.83;100.00;62900.06;5113294;28;20020;-64
2022/07/27 08:17:38;;;;;;;6.65;6.35;;;;;;;-143.83;100.00;62900.06;5112187;28;20030;-64
2022/07/27 08:20:05;;;;;;;6.70;6.40;;;;;;;-143.83;100.00;62900.06;5113193;28;20425;-64
2022/07/27 08:22:31;;;;;;;6.70;6.40;;;;;;;-143.83;100.00;62900.06;5113332;28;20042;-64
2022/07/27 08:24:56;;;;;;;6.85;6.55;;;;;;;-143.83;100.00;62900.06;5113434;28;20390;-63
2022/07/27 08:27:22;;;;;;;6.60;6.30;;;;;;;-143.83;100.00;62900.06;5112990;28;20046;-63
2022/07/27 08:29:47;;;;;;;6.80;6.50;;;;;;;-143.83;100.00;62900.06;5113252;28;20428;-63
2022/07/27 08:32:13;;;;;;;6.80;6.50;;;;;;;-143.83;100.00;62900.06;5112853;28;20106;-64
2022/07/27 08:34:38;;;;;;;6.88;6.57;;;;;;;-143.83;100.00;62900.06;5112485;28;20483;-63
2022/07/27 08:37:04;;;;;;;6.78;6.47;;;;;;;-143.83;100.00;62900.06;5123724;27;20026;-63
2022/07/27 08:39:30;;;;;;;6.90;6.60;;;;;;;-143.83;100.00;62900.06;5113461;28;20114;-63
2022/07/27 08:41:59;;;;;;;6.60;6.30;;;;;;;-143.83;100.00;62900.06;5112882;28;20039;-62
2022/07/27 08:44:28;;;;;;;6.90;6.60;;;;;;;-143.83;100.00;62900.06;5113082;28;20103;-63
2022/07/27 08:46:55;;;;;;;6.78;6.47;;;;;;;-143.83;100.00;62900.06;5106173;28;20032;-65
2022/07/27 08:49:22;;;;;;;6.53;6.22;;;;;;;-143.83;100.00;62900.06;5107330;28;20030;-63
2022/07/27 08:51:49;;;;;;;6.68;6.38;;;;;;;-143.83;100.00;62900.06;5113069;28;20152;-64
2022/07/27 08:54:15;;;;;;;7.05;6.75;;;;;;;-143.83;100.00;62900.06;5112725;28;20027;-64
2022/07/27 08:56:41;;;;;;;6.90;6.60;;;;;;;-143.83;100.00;62900.06;5112899;28;20475;-64
2022/07/27 08:59:06;;;;;;;6.75;6.45;;;;;;;-143.83;100.00;62900.06;5112733;28;20023;-63
2022/07/27 09:01:34;;;;;;;6.78;6.47;;;;;;;-143.83;100.00;62900.06;5112359;28;20065;-64
2022/07/27 09:04:00;;;;;;;6.80;6.50;;;;;;;-143.83;100.00;62900.06;5112253;28;20015;-64
2022/07/27 09:06:47;;;;;;;7.00;6.70;;;;;;;-143.83;100.00;62900.06;5111456;28;20482;-63
2022/07/27 09:09:17;;;;;;;6.65;6.35;;;;;;;-143.83;100.00;62900.06;5112372;28;20020;-64
2022/07/27 09:11:42;;;;;;;6.70;6.40;;;;;;;-143.83;100.00;62900.06;5111975;28;20076;-64
2022/07/27 09:14:11;;;;;;;7.00;6.70;;;;;;;-143.83;100.00;62900.06;5112005;28;20039;-64
2022/07/27 09:16:38;;;;;;;6.90;6.60;;;;;;;-143.83;100.00;62900.06;5112297;28;20015;-64
2022/07/27 09:19:06;;;;;;;6.90;6.60;;;;;;;-143.83;100.00;62900.06;5112230;28;20035;-66
2022/07/27 09:21:34;;;;;;;6.72;6.43;;;;;;;-143.83;100.00;62900.06;5112064;28;20028;-64
2022/07/27 09:24:10;;;;;;;7.00;6.70;;;;;;;-143.83;100.00;62900.06;5111174;28;20022;-64
2022/07/27 09:26:36;;;;;;;6.78;6.47;;;;;;;-143.83;100.00;62900.06;5112207;28;20368;-63
2022/07/27 09:29:13;;;;;;;7.00;6.70;;;;;;;-143.83;100.00;62900.06;5112290;28;20015;-63
2022/07/27 09:31:49;;;;;;;6.70;6.40;;;;;;;-143.83;100.00;62900.06;5112367;28;20058;-64
2022/07/27 09:34:33;;;;;;;6.80;6.50;;;;;;;-143.83;100.00;62900.06;5120102;28;20024;-63
2022/07/27 09:37:02;;;;;;;6.70;6.40;;;;;;;-143.83;100.00;62900.06;5098976;28;20100;-64
2022/07/27 09:39:27;;;;;;;6.70;6.40;;;;;;;-143.83;100.00;62900.06;5112122;28;20028;-63
2022/07/27 09:42:01;;;;;;;6.90;6.60;;;;;;;-143.83;100.00;62900.06;5111234;28;20532;-63
2022/07/27 09:44:41;;;;;;;6.80;6.50;;;;;;;-143.83;100.00;62900.06;5105656;28;20018;-64
2022/07/27 09:47:27;;;;;;;6.88;6.57;;;;;;;-143.83;100.00;62900.06;5110392;28;20027;-64
2022/07/27 09:50:16;;;;;;;6.70;6.40;;;;;;;-143.83;100.00;62900.06;5111684;28;20028;-64
2022/07/27 09:52:42;;;;;;;6.78;6.47;;;;;;;-143.83;100.00;62900.06;5112142;28;20023;-63
2022/07/27 09:55:08;;;;;;;7.03;6.72;;;;;;;-143.83;100.00;62900.06;5111579;28;20459;-63
2022/07/27 09:57:56;;;;;;;7.05;6.75;;;;;;;-143.83;100.00;62900.06;5111160;28;20032;-64
2022/07/27 10:00:22;;;;;;;6.90;6.60;;;;;;;-143.83;100.00;62900.06;5112195;28;20031;-63
2022/07/27 10:02:49;;;;;;;6.70;6.40;;;;;;;-143.83;100.00;62900.06;5111940;28;20027;-63
2022/07/27 10:05:18;;;;;;;6.85;6.55;;;;;;;-143.83;100.00;62900.06;5112189;28;20031;-64
2022/07/27 10:07:44;;;;;;;6.90;6.60;;;;;;;-143.83;100.00;62900.06;5111987;28;20093;-64
2022/07/27 10:10:13;;;;;;;6.88;6.57;;;;;;;-143.83;100.00;62900.06;5111692;28;20024;-63
2022/07/27 10:12:40;;;;;;;6.80;6.50;;;;;;;-143.83;100.00;62900.06;5111936;28;20399;-63
2022/07/27 10:15:06;;;;;;;6.80;6.50;;;;;;;-143.83;100.00;62900.06;5110769;28;20052;-64
2022/07/27 10:17:33;;;;;;;6.70;6.40;;;;;;;-143.83;100.00;62900.06;5111936;28;20015;-64
2022/07/27 10:20:02;;;;;;;6.75;6.45;;;;;;;-143.83;100.00;62900.06;5112073;28;20460;-64
2022/07/27 10:22:47;;;;;;;6.55;6.25;;;;;;;-143.83;100.00;62900.06;5112282;28;20430;-63
2022/07/27 10:25:13;;;;;;;6.90;6.60;;;;;;;-143.83;100.00;62900.06;5115571;28;20031;-63
2022/07/27 10:27:39;;;;;;;6.80;6.50;;;;;;;-143.83;100.00;62900.06;5114520;28;20532;-63
2022/07/27 10:30:05;;;;;;;6.72;6.43;;;;;;;-143.83;100.00;62900.06;5121373;27;20042;-63
2022/07/27 10:32:33;;;;;;;7.00;6.70;;;;;;;-143.83;100.00;62900.06;5114847;28;20131;-63
2022/07/27 10:35:01;;;;;;;6.80;6.50;;;;;;;-143.83;100.00;62900.06;5115378;28;20032;-63
2022/07/27 10:37:32;;;;;;;6.90;6.60;;;;;;;-143.83;100.00;62900.06;5115517;28;20485;-63
2022/07/27 10:42:49;;;;;;;6.80;6.50;;;;;;;-143.83;100.00;62900.06;5115091;28;20584;-63
2022/07/27 10:45:16;;;;;;;6.90;6.60;;;;;;;-143.83;100.00;62900.06;5114725;28;20023;-63
2022/07/27 10:47:51;;;;;;;7.00;6.70;;;;;;;-143.83;100.00;62900.06;5115147;27;20032;-64
2022/07/27 10:50:16;;;;;;;6.75;6.45;;;;;;;-143.83;100.00;62900.06;5113912;28;20019;-63
2022/07/27 10:52:47;;;;;;;7.00;6.70;;;;;;;-143.83;100.00;62900.06;5114217;28;20549;-63
2022/07/27 10:55:32;;;;;;;6.90;6.60;;;;;;;-143.83;100.00;62900.06;5111816;28;20030;-64
2022/07/27 10:58:13;;;;;;;7.00;6.70;;;;;;;-143.83;100.00;62900.06;5114761;28;20073;-63
2022/07/27 11:00:47;;;;;;;6.97;6.68;;;;;;;-143.83;100.00;62900.06;5114925;28;20023;-64
2022/07/27 11:03:20;;;;;;;7.00;6.70;;;;;;;-143.83;100.00;62900.06;5114665;28;20482;-63
2022/07/27 11:06:10;;;;;;;6.95;6.65;;;;;;;-143.83;100.00;62900.06;5113918;28;20053;-64
2022/07/27 11:08:43;;;;;;;6.75;6.45;;;;;;;-143.83;100.00;62900.06;5114523;28;20103;-64
2022/07/27 11:11:29;;;;;;;6.70;6.40;;;;;;;-143.83;100.00;62900.06;5114662;28;20028;-63